sensor_id;sensor_type;location;lat;lon;timestamp;P1;durP1;ratioP1;P2;durP2;ratioP2
43457;SDS011;29046;54.184;18.680;2023-06-24T00:01:39;10.13;;;7.40;;
43457;SDS011;29046;54.184;18.680;2023-06-24T00:04:07;11.50;;;7.63;;
43457;SDS011;29046;54.184;18.680;2023-06-24T00:06:34;8.50;;;6.93;;
43457;SDS011;29046;54.184;18.680;2023-06-24T00:09:03;12.13;;;7.38;;
43457;SDS011;29046;54.184;18.680;2023-06-24T00:11:31;11.43;;;7.22;;
43457;SDS011;29046;54.184;18.680;2023-06-24T00:13:58;12.32;;;7.15;;
43457;SDS011;29046;54.184;18.680;2023-06-24T00:16:26;11.55;;;6.93;;
43457;SDS011;29046;54.184;18.680;2023-06-24T00:18:54;13.05;;;7.28;;
43457;SDS011;29046;54.184;18.680;2023-06-24T00:21:25;10.13;;;6.82;;
43457;SDS011;29046;54.184;18.680;2023-06-24T00:23:59;12.38;;;7.57;;
43457;SDS011;29046;54.184;18.680;2023-06-24T00:26:28;14.57;;;7.25;;
43457;SDS011;29046;54.184;18.680;2023-06-24T00:28:56;14.63;;;7.15;;
43457;SDS011;29046;54.184;18.680;2023-06-24T00:31:23;12.00;;;6.68;;
43457;SDS011;29046;54.184;18.680;2023-06-24T00:33:51;10.70;;;6.53;;
43457;SDS011;29046;54.184;18.680;2023-06-24T00:36:20;11.85;;;6.65;;
43457;SDS011;29046;54.184;18.680;2023-06-24T00:38:47;9.43;;;6.55;;
43457;SDS011;29046;54.184;18.680;2023-06-24T00:41:16;10.30;;;6.57;;
43457;SDS011;29046;54.184;18.680;2023-06-24T00:43:46;10.10;;;6.22;;
43457;SDS011;29046;54.184;18.680;2023-06-24T00:46:14;10.23;;;7.07;;
43457;SDS011;29046;54.184;18.680;2023-06-24T00:48:42;12.20;;;7.05;;
43457;SDS011;29046;54.184;18.680;2023-06-24T00:51:09;10.27;;;6.60;;
43457;SDS011;29046;54.184;18.680;2023-06-24T00:53:37;11.20;;;6.60;;
43457;SDS011;29046;54.184;18.680;2023-06-24T00:56:04;10.05;;;6.80;;
43457;SDS011;29046;54.184;18.680;2023-06-24T00:58:32;10.48;;;6.10;;
43457;SDS011;29046;54.184;18.680;2023-06-24T01:01:00;9.73;;;6.40;;
43457;SDS011;29046;54.184;18.680;2023-06-24T01:03:29;11.88;;;6.50;;
43457;SDS011;29046;54.184;18.680;2023-06-24T01:05:57;13.50;;;6.45;;
43457;SDS011;29046;54.184;18.680;2023-06-24T01:08:25;13.90;;;6.57;;
43457;SDS011;29046;54.184;18.680;2023-06-24T01:10:52;10.25;;;6.53;;
43457;SDS011;29046;54.184;18.680;2023-06-24T01:13:20;11.27;;;6.50;;
43457;SDS011;29046;54.184;18.680;2023-06-24T01:15:47;10.50;;;6.22;;
43457;SDS011;29046;54.184;18.680;2023-06-24T01:18:27;12.93;;;6.70;;
43457;SDS011;29046;54.184;18.680;2023-06-24T01:31:31;11.48;;;6.57;;
43457;SDS011;29046;54.184;18.680;2023-06-24T01:36:30;9.68;;;6.80;;
43457;SDS011;29046;54.184;18.680;2023-06-24T01:39:01;12.18;;;5.85;;
43457;SDS011;29046;54.184;18.680;2023-06-24T01:41:31;13.38;;;6.22;;
43457;SDS011;29046;54.184;18.680;2023-06-24T01:44:00;12.90;;;6.40;;
43457;SDS011;29046;54.184;18.680;2023-06-24T01:46:28;12.20;;;6.97;;
43457;SDS011;29046;54.184;18.680;2023-06-24T01:49:01;10.30;;;6.57;;
43457;SDS011;29046;54.184;18.680;2023-06-24T01:51:30;9.65;;;6.15;;
43457;SDS011;29046;54.184;18.680;2023-06-24T01:54:01;13.20;;;6.43;;
43457;SDS011;29046;54.184;18.680;2023-06-24T01:56:29;10.45;;;5.47;;
43457;SDS011;29046;54.184;18.680;2023-06-24T01:58:58;10.20;;;5.68;;
43457;SDS011;29046;54.184;18.680;2023-06-24T02:01:27;9.38;;;5.70;;
43457;SDS011;29046;54.184;18.680;2023-06-24T02:03:55;9.30;;;5.55;;
43457;SDS011;29046;54.184;18.680;2023-06-24T02:06:23;8.68;;;4.80;;
43457;SDS011;29046;54.184;18.680;2023-06-24T02:08:51;6.20;;;4.93;;
43457;SDS011;29046;54.184;18.680;2023-06-24T02:11:21;10.10;;;4.70;;
43457;SDS011;29046;54.184;18.680;2023-06-24T02:13:49;8.00;;;5.25;;
43457;SDS011;29046;54.184;18.680;2023-06-24T02:16:17;10.32;;;5.10;;
43457;SDS011;29046;54.184;18.680;2023-06-24T02:18:46;10.73;;;4.82;;
43457;SDS011;29046;54.184;18.680;2023-06-24T02:21:14;11.27;;;5.05;;
43457;SDS011;29046;54.184;18.680;2023-06-24T02:23:42;10.02;;;6.18;;
43457;SDS011;29046;54.184;18.680;2023-06-24T02:26:10;6.43;;;4.28;;
43457;SDS011;29046;54.184;18.680;2023-06-24T02:28:38;6.88;;;4.80;;
43457;SDS011;29046;54.184;18.680;2023-06-24T02:31:06;7.90;;;5.25;;
43457;SDS011;29046;54.184;18.680;2023-06-24T02:33:36;8.23;;;4.40;;
43457;SDS011;29046;54.184;18.680;2023-06-24T02:36:03;9.50;;;5.15;;
43457;SDS011;29046;54.184;18.680;2023-06-24T02:38:31;6.95;;;4.90;;
43457;SDS011;29046;54.184;18.680;2023-06-24T02:40:59;9.40;;;4.75;;
43457;SDS011;29046;54.184;18.680;2023-06-24T02:43:29;9.60;;;4.65;;
43457;SDS011;29046;54.184;18.680;2023-06-24T02:45:57;11.07;;;5.10;;
43457;SDS011;29046;54.184;18.680;2023-06-24T02:48:25;9.73;;;4.72;;
43457;SDS011;29046;54.184;18.680;2023-06-24T02:50:53;7.13;;;4.28;;
43457;SDS011;29046;54.184;18.680;2023-06-24T02:53:20;8.05;;;4.57;;
43457;SDS011;29046;54.184;18.680;2023-06-24T02:55:48;7.68;;;4.30;;
43457;SDS011;29046;54.184;18.680;2023-06-24T02:58:16;6.35;;;4.47;;
43457;SDS011;29046;54.184;18.680;2023-06-24T03:00:43;9.43;;;4.70;;
43457;SDS011;29046;54.184;18.680;2023-06-24T03:03:11;9.40;;;4.60;;
43457;SDS011;29046;54.184;18.680;2023-06-24T03:05:39;7.47;;;4.70;;
43457;SDS011;29046;54.184;18.680;2023-06-24T03:08:07;8.63;;;4.30;;
43457;SDS011;29046;54.184;18.680;2023-06-24T03:10:36;8.38;;;4.60;;
43457;SDS011;29046;54.184;18.680;2023-06-24T03:13:04;6.60;;;4.28;;
43457;SDS011;29046;54.184;18.680;2023-06-24T03:15:32;9.07;;;4.00;;
43457;SDS011;29046;54.184;18.680;2023-06-24T03:18:00;8.00;;;4.60;;
43457;SDS011;29046;54.184;18.680;2023-06-24T03:20:27;10.80;;;4.95;;
43457;SDS011;29046;54.184;18.680;2023-06-24T03:22:56;7.28;;;4.57;;
43457;SDS011;29046;54.184;18.680;2023-06-24T03:25:23;7.32;;;5.72;;
43457;SDS011;29046;54.184;18.680;2023-06-24T03:27:51;6.65;;;4.30;;
43457;SDS011;29046;54.184;18.680;2023-06-24T03:30:18;6.65;;;3.85;;
43457;SDS011;29046;54.184;18.680;2023-06-24T03:32:46;9.45;;;4.05;;
43457;SDS011;29046;54.184;18.680;2023-06-24T03:35:14;8.45;;;4.55;;
43457;SDS011;29046;54.184;18.680;2023-06-24T03:37:42;11.10;;;4.90;;
43457;SDS011;29046;54.184;18.680;2023-06-24T03:40:09;10.50;;;4.78;;
43457;SDS011;29046;54.184;18.680;2023-06-24T03:42:37;7.53;;;4.72;;
43457;SDS011;29046;54.184;18.680;2023-06-24T03:45:04;11.85;;;4.95;;
43457;SDS011;29046;54.184;18.680;2023-06-24T03:47:32;7.18;;;4.72;;
43457;SDS011;29046;54.184;18.680;2023-06-24T03:49:59;7.70;;;4.72;;
43457;SDS011;29046;54.184;18.680;2023-06-24T03:52:27;5.97;;;3.65;;
43457;SDS011;29046;54.184;18.680;2023-06-24T03:54:55;5.88;;;4.10;;
43457;SDS011;29046;54.184;18.680;2023-06-24T03:57:22;7.28;;;4.18;;
43457;SDS011;29046;54.184;18.680;2023-06-24T03:59:50;7.10;;;4.35;;
43457;SDS011;29046;54.184;18.680;2023-06-24T04:02:17;5.95;;;4.20;;
43457;SDS011;29046;54.184;18.680;2023-06-24T04:04:46;8.73;;;4.40;;
43457;SDS011;29046;54.184;18.680;2023-06-24T04:07:16;7.13;;;4.15;;
43457;SDS011;29046;54.184;18.680;2023-06-24T04:09:54;7.40;;;4.18;;
43457;SDS011;29046;54.184;18.680;2023-06-24T04:12:22;8.48;;;3.88;;
43457;SDS011;29046;54.184;18.680;2023-06-24T04:14:50;9.02;;;3.92;;
43457;SDS011;29046;54.184;18.680;2023-06-24T04:17:17;6.60;;;4.38;;
43457;SDS011;29046;54.184;18.680;2023-06-24T04:19:45;8.68;;;4.10;;
43457;SDS011;29046;54.184;18.680;2023-06-24T04:22:12;7.25;;;3.95;;
43457;SDS011;29046;54.184;18.680;2023-06-24T04:24:40;6.82;;;3.47;;
43457;SDS011;29046;54.184;18.680;2023-06-24T04:27:08;5.72;;;3.78;;
43457;SDS011;29046;54.184;18.680;2023-06-24T04:29:35;5.78;;;3.50;;
43457;SDS011;29046;54.184;18.680;2023-06-24T04:32:03;7.20;;;4.00;;
43457;SDS011;29046;54.184;18.680;2023-06-24T04:34:31;7.43;;;3.45;;
43457;SDS011;29046;54.184;18.680;2023-06-24T04:36:59;6.63;;;3.80;;
43457;SDS011;29046;54.184;18.680;2023-06-24T04:39:26;4.63;;;3.58;;
43457;SDS011;29046;54.184;18.680;2023-06-24T04:41:54;5.75;;;3.28;;
43457;SDS011;29046;54.184;18.680;2023-06-24T04:44:21;6.63;;;3.80;;
43457;SDS011;29046;54.184;18.680;2023-06-24T04:46:49;5.80;;;3.33;;
43457;SDS011;29046;54.184;18.680;2023-06-24T04:49:18;5.57;;;3.60;;
43457;SDS011;29046;54.184;18.680;2023-06-24T04:51:46;5.75;;;3.60;;
43457;SDS011;29046;54.184;18.680;2023-06-24T04:54:14;6.25;;;3.83;;
43457;SDS011;29046;54.184;18.680;2023-06-24T04:56:41;5.70;;;3.90;;
43457;SDS011;29046;54.184;18.680;2023-06-24T04:59:10;4.95;;;3.47;;
43457;SDS011;29046;54.184;18.680;2023-06-24T05:01:38;9.60;;;3.70;;
43457;SDS011;29046;54.184;18.680;2023-06-24T05:04:06;6.10;;;4.13;;
43457;SDS011;29046;54.184;18.680;2023-06-24T05:06:33;6.63;;;4.25;;
43457;SDS011;29046;54.184;18.680;2023-06-24T05:09:01;7.53;;;3.50;;
43457;SDS011;29046;54.184;18.680;2023-06-24T05:11:29;16.73;;;3.95;;
43457;SDS011;29046;54.184;18.680;2023-06-24T05:13:56;7.22;;;3.45;;
43457;SDS011;29046;54.184;18.680;2023-06-24T05:16:24;5.90;;;3.30;;
43457;SDS011;29046;54.184;18.680;2023-06-24T05:18:52;6.47;;;3.38;;
43457;SDS011;29046;54.184;18.680;2023-06-24T05:21:19;5.28;;;3.00;;
43457;SDS011;29046;54.184;18.680;2023-06-24T05:23:47;5.63;;;3.13;;
43457;SDS011;29046;54.184;18.680;2023-06-24T05:26:14;8.75;;;4.05;;
43457;SDS011;29046;54.184;18.680;2023-06-24T05:28:42;6.70;;;2.90;;
43457;SDS011;29046;54.184;18.680;2023-06-24T05:31:09;5.68;;;3.10;;
43457;SDS011;29046;54.184;18.680;2023-06-24T05:33:37;5.05;;;3.13;;
43457;SDS011;29046;54.184;18.680;2023-06-24T05:36:04;8.40;;;4.20;;
43457;SDS011;29046;54.184;18.680;2023-06-24T05:38:32;6.78;;;3.45;;
43457;SDS011;29046;54.184;18.680;2023-06-24T05:40:59;7.10;;;3.60;;
43457;SDS011;29046;54.184;18.680;2023-06-24T05:43:29;8.10;;;3.17;;
43457;SDS011;29046;54.184;18.680;2023-06-24T05:45:56;9.52;;;3.20;;
43457;SDS011;29046;54.184;18.680;2023-06-24T05:48:24;6.53;;;3.50;;
43457;SDS011;29046;54.184;18.680;2023-06-24T05:50:51;5.70;;;3.08;;
43457;SDS011;29046;54.184;18.680;2023-06-24T05:53:18;13.85;;;3.55;;
43457;SDS011;29046;54.184;18.680;2023-06-24T05:55:46;7.82;;;3.00;;
43457;SDS011;29046;54.184;18.680;2023-06-24T05:58:14;4.78;;;3.10;;
43457;SDS011;29046;54.184;18.680;2023-06-24T06:00:42;5.32;;;3.30;;
43457;SDS011;29046;54.184;18.680;2023-06-24T06:03:10;5.78;;;3.15;;
43457;SDS011;29046;54.184;18.680;2023-06-24T06:05:38;7.35;;;3.33;;
43457;SDS011;29046;54.184;18.680;2023-06-24T06:08:06;4.22;;;3.42;;
43457;SDS011;29046;54.184;18.680;2023-06-24T06:10:33;5.63;;;3.22;;
43457;SDS011;29046;54.184;18.680;2023-06-24T06:13:01;6.25;;;3.08;;
43457;SDS011;29046;54.184;18.680;2023-06-24T06:15:28;5.72;;;3.10;;
43457;SDS011;29046;54.184;18.680;2023-06-24T06:17:56;4.97;;;3.13;;
43457;SDS011;29046;54.184;18.680;2023-06-24T06:20:23;3.83;;;2.97;;
43457;SDS011;29046;54.184;18.680;2023-06-24T06:22:51;6.88;;;3.40;;
43457;SDS011;29046;54.184;18.680;2023-06-24T06:25:18;3.55;;;2.75;;
43457;SDS011;29046;54.184;18.680;2023-06-24T06:27:46;5.88;;;3.38;;
43457;SDS011;29046;54.184;18.680;2023-06-24T06:30:14;4.45;;;3.10;;
43457;SDS011;29046;54.184;18.680;2023-06-24T06:32:41;4.57;;;3.10;;
43457;SDS011;29046;54.184;18.680;2023-06-24T06:35:09;5.00;;;3.20;;
43457;SDS011;29046;54.184;18.680;2023-06-24T06:37:36;6.65;;;3.70;;
43457;SDS011;29046;54.184;18.680;2023-06-24T06:40:04;4.60;;;3.65;;
43457;SDS011;29046;54.184;18.680;2023-06-24T06:42:32;3.80;;;2.70;;
43457;SDS011;29046;54.184;18.680;2023-06-24T06:44:59;4.50;;;3.08;;
43457;SDS011;29046;54.184;18.680;2023-06-24T06:47:27;6.95;;;3.50;;
43457;SDS011;29046;54.184;18.680;2023-06-24T06:49:54;5.25;;;3.63;;
43457;SDS011;29046;54.184;18.680;2023-06-24T06:52:22;6.22;;;3.38;;
43457;SDS011;29046;54.184;18.680;2023-06-24T06:54:49;8.00;;;3.15;;
43457;SDS011;29046;54.184;18.680;2023-06-24T06:57:17;3.60;;;2.88;;
43457;SDS011;29046;54.184;18.680;2023-06-24T06:59:45;4.20;;;2.92;;
43457;SDS011;29046;54.184;18.680;2023-06-24T07:02:12;5.18;;;3.75;;
43457;SDS011;29046;54.184;18.680;2023-06-24T07:04:40;4.10;;;3.17;;
43457;SDS011;29046;54.184;18.680;2023-06-24T07:07:07;6.00;;;3.60;;
43457;SDS011;29046;54.184;18.680;2023-06-24T07:09:35;4.30;;;3.03;;
43457;SDS011;29046;54.184;18.680;2023-06-24T07:12:02;6.95;;;3.50;;
43457;SDS011;29046;54.184;18.680;2023-06-24T07:14:30;5.03;;;3.33;;
43457;SDS011;29046;54.184;18.680;2023-06-24T07:16:57;4.25;;;3.17;;
43457;SDS011;29046;54.184;18.680;2023-06-24T07:19:25;4.35;;;3.60;;
43457;SDS011;29046;54.184;18.680;2023-06-24T07:21:52;5.32;;;3.50;;
43457;SDS011;29046;54.184;18.680;2023-06-24T07:24:20;4.45;;;3.20;;
43457;SDS011;29046;54.184;18.680;2023-06-24T07:26:47;7.38;;;3.67;;
43457;SDS011;29046;54.184;18.680;2023-06-24T07:29:15;6.88;;;3.35;;
43457;SDS011;29046;54.184;18.680;2023-06-24T07:31:42;4.47;;;3.10;;
43457;SDS011;29046;54.184;18.680;2023-06-24T07:34:10;4.72;;;3.50;;
43457;SDS011;29046;54.184;18.680;2023-06-24T07:36:37;5.18;;;3.40;;
43457;SDS011;29046;54.184;18.680;2023-06-24T07:39:05;5.40;;;3.40;;
43457;SDS011;29046;54.184;18.680;2023-06-24T07:41:32;5.63;;;3.35;;
43457;SDS011;29046;54.184;18.680;2023-06-24T07:44:00;5.60;;;3.28;;
43457;SDS011;29046;54.184;18.680;2023-06-24T07:46:28;9.15;;;3.10;;
43457;SDS011;29046;54.184;18.680;2023-06-24T07:48:56;3.95;;;3.10;;
43457;SDS011;29046;54.184;18.680;2023-06-24T07:51:24;5.85;;;3.63;;
43457;SDS011;29046;54.184;18.680;2023-06-24T07:53:52;7.32;;;3.40;;
43457;SDS011;29046;54.184;18.680;2023-06-24T07:56:19;9.02;;;3.78;;
43457;SDS011;29046;54.184;18.680;2023-06-24T07:58:47;4.18;;;3.40;;
43457;SDS011;29046;54.184;18.680;2023-06-24T08:01:14;6.57;;;3.72;;
43457;SDS011;29046;54.184;18.680;2023-06-24T08:03:42;5.85;;;4.00;;
43457;SDS011;29046;54.184;18.680;2023-06-24T08:06:09;6.25;;;3.92;;
43457;SDS011;29046;54.184;18.680;2023-06-24T08:08:37;4.80;;;3.63;;
43457;SDS011;29046;54.184;18.680;2023-06-24T08:11:04;5.63;;;3.47;;
43457;SDS011;29046;54.184;18.680;2023-06-24T08:13:32;3.95;;;3.60;;
43457;SDS011;29046;54.184;18.680;2023-06-24T08:15:59;8.43;;;3.45;;
43457;SDS011;29046;54.184;18.680;2023-06-24T08:18:27;5.03;;;3.60;;
43457;SDS011;29046;54.184;18.680;2023-06-24T08:20:54;4.88;;;3.35;;
43457;SDS011;29046;54.184;18.680;2023-06-24T08:23:22;4.00;;;3.08;;
43457;SDS011;29046;54.184;18.680;2023-06-24T08:25:49;7.47;;;3.78;;
43457;SDS011;29046;54.184;18.680;2023-06-24T08:28:27;6.10;;;3.80;;
43457;SDS011;29046;54.184;18.680;2023-06-24T08:30:54;5.80;;;3.55;;
43457;SDS011;29046;54.184;18.680;2023-06-24T08:33:22;6.03;;;3.60;;
43457;SDS011;29046;54.184;18.680;2023-06-24T08:35:49;4.50;;;3.42;;
43457;SDS011;29046;54.184;18.680;2023-06-24T08:38:17;7.53;;;3.50;;
43457;SDS011;29046;54.184;18.680;2023-06-24T08:40:44;5.15;;;2.92;;
43457;SDS011;29046;54.184;18.680;2023-06-24T08:43:13;5.75;;;3.65;;
43457;SDS011;29046;54.184;18.680;2023-06-24T08:45:40;5.00;;;3.17;;
43457;SDS011;29046;54.184;18.680;2023-06-24T08:48:08;6.97;;;3.47;;
43457;SDS011;29046;54.184;18.680;2023-06-24T08:50:37;5.20;;;3.47;;
43457;SDS011;29046;54.184;18.680;2023-06-24T08:53:07;4.30;;;3.53;;
43457;SDS011;29046;54.184;18.680;2023-06-24T08:55:43;8.15;;;3.70;;
43457;SDS011;29046;54.184;18.680;2023-06-24T08:58:11;5.97;;;3.70;;
43457;SDS011;29046;54.184;18.680;2023-06-24T09:00:38;4.20;;;3.40;;
43457;SDS011;29046;54.184;18.680;2023-06-24T09:03:06;5.05;;;3.35;;
43457;SDS011;29046;54.184;18.680;2023-06-24T09:05:34;3.90;;;3.00;;
43457;SDS011;29046;54.184;18.680;2023-06-24T09:08:02;4.55;;;3.42;;
43457;SDS011;29046;54.184;18.680;2023-06-24T09:10:30;7.00;;;3.65;;
43457;SDS011;29046;54.184;18.680;2023-06-24T09:12:59;4.72;;;3.47;;
43457;SDS011;29046;54.184;18.680;2023-06-24T09:15:37;4.97;;;3.13;;
43457;SDS011;29046;54.184;18.680;2023-06-24T09:18:05;4.50;;;3.45;;
43457;SDS011;29046;54.184;18.680;2023-06-24T09:20:32;5.05;;;3.47;;
43457;SDS011;29046;54.184;18.680;2023-06-24T09:23:06;4.47;;;3.30;;
43457;SDS011;29046;54.184;18.680;2023-06-24T09:25:33;7.75;;;3.80;;
43457;SDS011;29046;54.184;18.680;2023-06-24T09:28:02;4.97;;;3.38;;
43457;SDS011;29046;54.184;18.680;2023-06-24T09:30:30;4.15;;;3.50;;
43457;SDS011;29046;54.184;18.680;2023-06-24T09:32:58;5.30;;;3.80;;
43457;SDS011;29046;54.184;18.680;2023-06-24T09:35:25;7.38;;;3.97;;
43457;SDS011;29046;54.184;18.680;2023-06-24T09:37:57;5.50;;;3.67;;
43457;SDS011;29046;54.184;18.680;2023-06-24T09:40:27;7.43;;;4.05;;
43457;SDS011;29046;54.184;18.680;2023-06-24T09:42:56;7.75;;;3.55;;
43457;SDS011;29046;54.184;18.680;2023-06-24T09:45:24;4.38;;;3.53;;
43457;SDS011;29046;54.184;18.680;2023-06-24T09:47:52;3.83;;;3.15;;
43457;SDS011;29046;54.184;18.680;2023-06-24T09:50:20;4.13;;;3.65;;
43457;SDS011;29046;54.184;18.680;2023-06-24T09:52:49;5.97;;;3.70;;
43457;SDS011;29046;54.184;18.680;2023-06-24T09:55:17;4.50;;;3.55;;
43457;SDS011;29046;54.184;18.680;2023-06-24T09:57:45;5.32;;;3.38;;
43457;SDS011;29046;54.184;18.680;2023-06-24T10:00:14;5.43;;;3.70;;
43457;SDS011;29046;54.184;18.680;2023-06-24T10:02:42;6.07;;;3.72;;
43457;SDS011;29046;54.184;18.680;2023-06-24T10:05:11;6.68;;;3.60;;
43457;SDS011;29046;54.184;18.680;2023-06-24T10:07:40;6.78;;;3.90;;
43457;SDS011;29046;54.184;18.680;2023-06-24T10:10:08;7.20;;;3.72;;
43457;SDS011;29046;54.184;18.680;2023-06-24T10:12:37;18.48;;;4.72;;
43457;SDS011;29046;54.184;18.680;2023-06-24T10:16:31;6.97;;;3.75;;
43457;SDS011;29046;54.184;18.680;2023-06-24T10:19:21;10.07;;;3.83;;
43457;SDS011;29046;54.184;18.680;2023-06-24T10:22:08;10.95;;;3.55;;
43457;SDS011;29046;54.184;18.680;2023-06-24T10:25:12;16.50;;;3.10;;
43457;SDS011;29046;54.184;18.680;2023-06-24T10:27:41;7.32;;;3.70;;
43457;SDS011;29046;54.184;18.680;2023-06-24T10:30:18;4.78;;;3.33;;
43457;SDS011;29046;54.184;18.680;2023-06-24T10:33:55;4.40;;;3.42;;
43457;SDS011;29046;54.184;18.680;2023-06-24T10:36:42;6.70;;;3.85;;
43457;SDS011;29046;54.184;18.680;2023-06-24T10:39:30;6.30;;;3.67;;
43457;SDS011;29046;54.184;18.680;2023-06-24T10:41:57;5.95;;;3.80;;
43457;SDS011;29046;54.184;18.680;2023-06-24T10:44:24;5.63;;;3.75;;
43457;SDS011;29046;54.184;18.680;2023-06-24T10:46:55;6.20;;;3.47;;
43457;SDS011;29046;54.184;18.680;2023-06-24T10:49:22;8.38;;;3.83;;
43457;SDS011;29046;54.184;18.680;2023-06-24T10:51:50;4.65;;;3.60;;
43457;SDS011;29046;54.184;18.680;2023-06-24T10:54:17;4.43;;;3.50;;
43457;SDS011;29046;54.184;18.680;2023-06-24T10:56:45;6.43;;;3.72;;
43457;SDS011;29046;54.184;18.680;2023-06-24T10:59:13;4.97;;;3.70;;
43457;SDS011;29046;54.184;18.680;2023-06-24T11:01:53;5.25;;;3.50;;
43457;SDS011;29046;54.184;18.680;2023-06-24T11:04:20;6.57;;;3.60;;
43457;SDS011;29046;54.184;18.680;2023-06-24T11:07:00;7.03;;;3.95;;
43457;SDS011;29046;54.184;18.680;2023-06-24T11:09:28;5.28;;;3.70;;
43457;SDS011;29046;54.184;18.680;2023-06-24T11:11:55;5.10;;;3.72;;
43457;SDS011;29046;54.184;18.680;2023-06-24T11:14:23;9.45;;;4.25;;
43457;SDS011;29046;54.184;18.680;2023-06-24T11:16:50;5.30;;;3.80;;
43457;SDS011;29046;54.184;18.680;2023-06-24T11:19:18;5.22;;;3.88;;
43457;SDS011;29046;54.184;18.680;2023-06-24T11:21:45;6.50;;;4.03;;
43457;SDS011;29046;54.184;18.680;2023-06-24T11:24:13;6.97;;;3.60;;
43457;SDS011;29046;54.184;18.680;2023-06-24T11:26:41;6.75;;;4.07;;
43457;SDS011;29046;54.184;18.680;2023-06-24T11:29:09;9.18;;;4.50;;
43457;SDS011;29046;54.184;18.680;2023-06-24T11:31:37;7.45;;;4.10;;
43457;SDS011;29046;54.184;18.680;2023-06-24T11:34:05;7.20;;;4.55;;
43457;SDS011;29046;54.184;18.680;2023-06-24T11:36:32;4.45;;;3.50;;
43457;SDS011;29046;54.184;18.680;2023-06-24T11:39:00;5.28;;;4.15;;
43457;SDS011;29046;54.184;18.680;2023-06-24T11:41:27;8.07;;;3.60;;
43457;SDS011;29046;54.184;18.680;2023-06-24T11:43:57;10.48;;;4.75;;
43457;SDS011;29046;54.184;18.680;2023-06-24T11:46:28;6.43;;;3.85;;
43457;SDS011;29046;54.184;18.680;2023-06-24T11:49:05;11.30;;;4.00;;
43457;SDS011;29046;54.184;18.680;2023-06-24T11:51:33;7.32;;;4.70;;
43457;SDS011;29046;54.184;18.680;2023-06-24T11:54:04;16.45;;;4.68;;
43457;SDS011;29046;54.184;18.680;2023-06-24T11:56:35;6.28;;;4.47;;
43457;SDS011;29046;54.184;18.680;2023-06-24T11:59:06;7.70;;;3.90;;
43457;SDS011;29046;54.184;18.680;2023-06-24T12:01:44;6.43;;;3.83;;
43457;SDS011;29046;54.184;18.680;2023-06-24T12:04:14;6.70;;;3.90;;
43457;SDS011;29046;54.184;18.680;2023-06-24T12:06:42;4.78;;;3.70;;
43457;SDS011;29046;54.184;18.680;2023-06-24T12:09:10;8.38;;;4.55;;
43457;SDS011;29046;54.184;18.680;2023-06-24T12:11:37;6.53;;;3.90;;
43457;SDS011;29046;54.184;18.680;2023-06-24T12:14:05;7.47;;;3.85;;
43457;SDS011;29046;54.184;18.680;2023-06-24T12:16:33;3.95;;;3.30;;
43457;SDS011;29046;54.184;18.680;2023-06-24T12:19:01;5.47;;;3.92;;
43457;SDS011;29046;54.184;18.680;2023-06-24T12:21:29;9.10;;;3.78;;
43457;SDS011;29046;54.184;18.680;2023-06-24T12:23:56;7.70;;;3.78;;
43457;SDS011;29046;54.184;18.680;2023-06-24T12:26:24;12.27;;;5.47;;
43457;SDS011;29046;54.184;18.680;2023-06-24T12:28:55;11.23;;;5.32;;
43457;SDS011;29046;54.184;18.680;2023-06-24T12:31:23;12.20;;;4.47;;
43457;SDS011;29046;54.184;18.680;2023-06-24T12:33:51;8.23;;;4.30;;
43457;SDS011;29046;54.184;18.680;2023-06-24T12:36:19;9.70;;;5.03;;
43457;SDS011;29046;54.184;18.680;2023-06-24T12:38:46;13.07;;;6.53;;
43457;SDS011;29046;54.184;18.680;2023-06-24T12:41:14;35.05;;;8.30;;
43457;SDS011;29046;54.184;18.680;2023-06-24T12:43:41;16.33;;;5.88;;
43457;SDS011;29046;54.184;18.680;2023-06-24T12:46:09;11.27;;;5.30;;
43457;SDS011;29046;54.184;18.680;2023-06-24T12:48:36;7.88;;;4.78;;
43457;SDS011;29046;54.184;18.680;2023-06-24T12:51:03;9.23;;;5.22;;
43457;SDS011;29046;54.184;18.680;2023-06-24T12:53:31;8.80;;;4.85;;
43457;SDS011;29046;54.184;18.680;2023-06-24T12:55:58;6.63;;;4.05;;
43457;SDS011;29046;54.184;18.680;2023-06-24T12:58:26;8.82;;;4.22;;
43457;SDS011;29046;54.184;18.680;2023-06-24T13:00:53;11.48;;;4.75;;
43457;SDS011;29046;54.184;18.680;2023-06-24T13:03:21;13.38;;;5.45;;
43457;SDS011;29046;54.184;18.680;2023-06-24T13:05:49;7.78;;;4.43;;
43457;SDS011;29046;54.184;18.680;2023-06-24T13:08:16;8.65;;;4.85;;
43457;SDS011;29046;54.184;18.680;2023-06-24T13:10:44;11.05;;;4.10;;
43457;SDS011;29046;54.184;18.680;2023-06-24T13:13:11;7.68;;;4.53;;
43457;SDS011;29046;54.184;18.680;2023-06-24T13:15:40;7.22;;;4.68;;
43457;SDS011;29046;54.184;18.680;2023-06-24T13:18:08;10.85;;;5.10;;
43457;SDS011;29046;54.184;18.680;2023-06-24T13:20:36;18.88;;;7.82;;
43457;SDS011;29046;54.184;18.680;2023-06-24T13:23:03;11.30;;;5.57;;
43457;SDS011;29046;54.184;18.680;2023-06-24T13:25:31;6.85;;;4.20;;
43457;SDS011;29046;54.184;18.680;2023-06-24T13:27:58;9.25;;;4.25;;
43457;SDS011;29046;54.184;18.680;2023-06-24T13:30:26;14.90;;;6.43;;
43457;SDS011;29046;54.184;18.680;2023-06-24T13:32:54;21.77;;;10.02;;
43457;SDS011;29046;54.184;18.680;2023-06-24T13:35:21;8.32;;;4.55;;
43457;SDS011;29046;54.184;18.680;2023-06-24T13:37:49;22.38;;;5.32;;
43457;SDS011;29046;54.184;18.680;2023-06-24T13:40:16;6.95;;;3.88;;
43457;SDS011;29046;54.184;18.680;2023-06-24T13:42:44;20.77;;;4.75;;
43457;SDS011;29046;54.184;18.680;2023-06-24T13:45:12;42.67;;;6.45;;
43457;SDS011;29046;54.184;18.680;2023-06-24T13:47:39;5.68;;;3.80;;
43457;SDS011;29046;54.184;18.680;2023-06-24T13:50:07;10.38;;;5.15;;
43457;SDS011;29046;54.184;18.680;2023-06-24T13:52:35;7.22;;;3.83;;
43457;SDS011;29046;54.184;18.680;2023-06-24T13:55:02;10.30;;;4.60;;
43457;SDS011;29046;54.184;18.680;2023-06-24T13:57:30;15.20;;;4.43;;
43457;SDS011;29046;54.184;18.680;2023-06-24T13:59:57;4.85;;;3.88;;
43457;SDS011;29046;54.184;18.680;2023-06-24T14:02:25;5.38;;;3.83;;
43457;SDS011;29046;54.184;18.680;2023-06-24T14:04:53;7.63;;;3.95;;
43457;SDS011;29046;54.184;18.680;2023-06-24T14:07:20;9.02;;;4.13;;
43457;SDS011;29046;54.184;18.680;2023-06-24T14:09:48;4.78;;;3.97;;
43457;SDS011;29046;54.184;18.680;2023-06-24T14:12:15;5.80;;;3.97;;
43457;SDS011;29046;54.184;18.680;2023-06-24T14:14:43;6.53;;;3.70;;
43457;SDS011;29046;54.184;18.680;2023-06-24T14:17:10;6.88;;;4.03;;
43457;SDS011;29046;54.184;18.680;2023-06-24T14:19:39;6.85;;;4.10;;
43457;SDS011;29046;54.184;18.680;2023-06-24T14:22:07;4.53;;;3.47;;
43457;SDS011;29046;54.184;18.680;2023-06-24T14:24:35;5.85;;;3.75;;
43457;SDS011;29046;54.184;18.680;2023-06-24T14:27:05;48.60;;;31.70;;
43457;SDS011;29046;54.184;18.680;2023-06-24T14:29:33;51.28;;;35.70;;
43457;SDS011;29046;54.184;18.680;2023-06-24T14:32:00;13.35;;;9.10;;
43457;SDS011;29046;54.184;18.680;2023-06-24T14:34:28;5.03;;;4.30;;
43457;SDS011;29046;54.184;18.680;2023-06-24T14:36:56;6.40;;;4.43;;
43457;SDS011;29046;54.184;18.680;2023-06-24T14:39:23;8.40;;;4.63;;
43457;SDS011;29046;54.184;18.680;2023-06-24T14:41:51;6.85;;;4.20;;
43457;SDS011;29046;54.184;18.680;2023-06-24T14:44:18;7.25;;;4.10;;
43457;SDS011;29046;54.184;18.680;2023-06-24T14:46:46;6.30;;;4.43;;
43457;SDS011;29046;54.184;18.680;2023-06-24T14:49:13;8.05;;;4.10;;
43457;SDS011;29046;54.184;18.680;2023-06-24T14:51:41;8.27;;;4.72;;
43457;SDS011;29046;54.184;18.680;2023-06-24T14:54:08;5.57;;;3.80;;